Time;durP1;ratioP1;P1;durP2;ratioP2;P2;SDS_P1;SDS_P2;PMS_P1;PMS_P2;Temp;Humidity;BMP_temperature;BMP_pressure;BME280_temperature;BME280_humidity;BME280_pressure;Samples;Min_cycle;Max_cycle;Signal;HPM_P1;HPM_P2
2021/11/03 00:00:51;;;;;;;15.93;11.40;;;;;;;22.83;42.48;94563.41;4968815;28;20037;-61
2021/11/03 00:03:16;;;;;;;14.30;11.05;;;;;;;22.81;42.15;94568.63;4968950;28;20063;-61
2021/11/03 00:05:46;;;;;;;15.57;11.30;;;;;;;22.77;42.30;94577.09;4951695;28;20030;-61
2021/11/03 00:08:22;;;;;;;13.93;10.70;;;;;;;22.77;42.30;94579.09;4969148;28;20030;-61
2021/11/03 00:10:48;;;;;;;14.75;11.20;;;;;;;22.77;42.42;94573.66;4951550;28;20035;-61
2021/11/03 00:13:15;;;;;;;15.55;11.13;;;;;;;22.76;42.04;94574.88;4951634;28;20549;-61
2021/11/03 00:15:40;;;;;;;14.32;11.57;;;;;;;22.74;42.47;94574.69;4951668;28;20034;-61
2021/11/03 00:18:06;;;;;;;14.88;11.00;;;;;;;22.74;42.45;94577.41;4951340;28;20019;-61
2021/11/03 00:20:31;;;;;;;14.63;10.48;;;;;;;22.71;42.72;94581.16;4968397;28;20050;-61
2021/11/03 00:22:57;;;;;;;13.88;10.95;;;;;;;22.70;42.46;94590.56;4967704;28;20038;-61
2021/11/03 00:25:23;;;;;;;14.23;10.82;;;;;;;22.69;42.65;94589.06;4951446;28;20398;-61
2021/11/03 00:27:49;;;;;;;14.48;10.43;;;;;;;22.66;42.50;94590.88;4967556;28;20019;-61
2021/11/03 00:30:14;;;;;;;14.25;10.88;;;;;;;22.67;42.40;94592.31;4967538;28;20023;-62
2021/11/03 00:32:40;;;;;;;14.68;10.98;;;;;;;22.67;42.76;94588.88;4968752;28;20421;-61
2021/11/03 00:35:05;;;;;;;14.55;10.80;;;;;;;22.64;42.80;94592.63;4968392;28;20386;-61
2021/11/03 00:37:31;;;;;;;12.80;10.70;;;;;;;22.64;42.46;94595.34;4968574;28;20019;-61
2021/11/03 00:39:56;;;;;;;14.70;10.95;;;;;;;22.62;42.78;94606.00;4968383;28;20105;-61
2021/11/03 00:42:22;;;;;;;14.63;10.57;;;;;;;22.61;42.42;94601.81;4968409;28;20683;-62
2021/11/03 00:44:47;;;;;;;14.60;10.48;;;;;;;22.59;42.67;94607.03;4968634;28;20468;-61
2021/11/03 00:47:13;;;;;;;13.73;10.32;;;;;;;22.59;42.48;94612.47;4968047;28;20026;-61
2021/11/03 00:49:38;;;;;;;14.70;10.38;;;;;;;22.59;42.70;94617.91;4967029;28;20031;-61
2021/11/03 00:52:04;;;;;;;13.48;10.32;;;;;;;22.58;42.61;94605.56;4968137;28;20027;-61
2021/11/03 00:54:29;;;;;;;13.35;10.77;;;;;;;22.57;42.66;94614.97;4967594;28;20081;-61
2021/11/03 00:56:55;;;;;;;13.63;10.07;;;;;;;22.55;42.89;94612.03;4968146;28;20023;-61
2021/11/03 00:59:20;;;;;;;14.27;10.30;;;;;;;22.55;42.84;94622.91;4967725;28;20027;-61
2021/11/03 01:02:04;;;;;;;14.63;10.82;;;;;;;22.54;42.76;94621.44;5271983;23;20042;-65
2021/11/03 01:04:29;;;;;;;13.73;10.32;;;;;;;22.52;42.83;94619.22;5003380;28;20089;-65
2021/11/03 01:06:55;;;;;;;13.82;9.93;;;;;;;22.53;42.92;94630.84;5007384;28;20307;-66
2021/11/03 01:09:20;;;;;;;13.95;9.82;;;;;;;22.51;42.96;94622.44;5007793;28;20030;-65
2021/11/03 01:11:46;;;;;;;14.18;10.40;;;;;;;22.52;42.49;94630.09;5007382;28;20580;-66
2021/11/03 01:14:11;;;;;;;15.23;10.77;;;;;;;22.47;42.72;94622.75;5007042;28;20499;-65
2021/11/03 01:16:37;;;;;;;13.63;10.30;;;;;;;22.49;42.74;94630.41;5007221;28;20682;-66
2021/11/03 01:19:03;;;;;;;13.98;10.38;;;;;;;22.47;42.92;94633.63;5007765;28;20026;-66
2021/11/03 01:21:28;;;;;;;12.25;9.43;;;;;;;22.47;43.13;94628.19;5007351;28;20113;-66
2021/11/03 01:23:54;;;;;;;13.43;9.95;;;;;;;22.46;43.04;94632.16;5006878;28;20439;-66
2021/11/03 01:26:19;;;;;;;13.88;9.60;;;;;;;22.46;42.93;94631.44;5007095;28;20030;-66
2021/11/03 01:28:45;;;;;;;14.77;9.95;;;;;;;22.45;42.78;94636.13;5007204;28;20021;-66
2021/11/03 01:31:11;;;;;;;12.90;9.55;;;;;;;22.43;42.85;94633.19;4989554;28;20026;-65
2021/11/03 01:33:36;;;;;;;15.05;10.02;;;;;;;22.45;43.11;94651.72;4989191;28;20034;-66
2021/11/03 01:36:02;;;;;;;14.23;10.25;;;;;;;22.43;43.14;94654.22;5007053;28;20621;-65
2021/11/03 01:38:27;;;;;;;13.20;9.82;;;;;;;22.41;43.08;94652.00;5006809;28;20029;-65
2021/11/03 01:40:53;;;;;;;13.23;9.85;;;;;;;22.40;43.01;94649.78;5006620;28;20034;-65
2021/11/03 01:43:39;;;;;;;13.20;9.68;;;;;;;22.42;42.88;94658.19;5006538;28;20088;-65
2021/11/03 01:46:23;;;;;;;13.05;9.38;;;;;;;22.41;43.12;94656.72;5006723;28;20080;-65
2021/11/03 01:48:49;;;;;;;13.43;9.77;;;;;;;22.40;43.02;94659.94;5006680;28;20026;-65
2021/11/03 01:51:18;;;;;;;14.30;9.70;;;;;;;22.39;43.26;94670.09;4989206;28;20056;-65
2021/11/03 01:53:44;;;;;;;13.90;10.77;;;;;;;22.38;43.22;94667.91;4988916;28;20029;-65
2021/11/03 01:56:10;;;;;;;12.38;9.77;;;;;;;22.37;43.15;94661.69;5006495;28;20022;-65
2021/11/03 01:58:50;;;;;;;14.95;10.27;;;;;;;22.38;43.03;94667.91;5006208;28;20113;-64
2021/11/03 02:01:16;;;;;;;14.98;10.10;;;;;;;22.35;43.04;94669.63;5006433;28;20029;-65
2021/11/03 02:03:41;;;;;;;12.55;9.73;;;;;;;22.35;43.18;94680.53;4985535;28;20516;-65
2021/11/03 02:06:14;;;;;;;12.43;9.70;;;;;;;22.33;43.13;94685.75;4984647;28;20789;-65
2021/11/03 02:08:41;;;;;;;12.68;9.88;;;;;;;22.32;42.87;94678.81;4985653;28;20029;-65
2021/11/03 02:11:06;;;;;;;12.60;9.82;;;;;;;22.33;42.98;94693.91;5001741;28;20030;-65
2021/11/03 02:13:32;;;;;;;12.20;9.82;;;;;;;22.31;43.06;94677.34;4985504;28;20105;-65
2021/11/03 02:15:57;;;;;;;12.38;9.40;;;;;;;22.33;43.26;94685.75;5001505;28;20100;-65
2021/11/03 02:18:23;;;;;;;13.63;9.80;;;;;;;22.33;43.25;94704.78;4985152;28;20117;-65
2021/11/03 02:20:49;;;;;;;12.57;9.82;;;;;;;22.32;43.28;94708.75;5001926;28;20038;-65
2021/11/03 02:23:36;;;;;;;13.32;9.93;;;;;;;22.29;43.13;94704.31;5001099;28;20049;-65
2021/11/03 02:26:19;;;;;;;13.25;9.52;;;;;;;22.30;43.09;94705.81;4985311;28;20030;-65
2021/11/03 02:28:45;;;;;;;12.82;8.93;;;;;;;22.27;42.98;94717.69;4986260;28;20080;-65
2021/11/03 02:31:36;;;;;;;11.98;9.32;;;;;;;22.31;43.43;94712.69;5001474;28;20038;-65
2021/11/03 02:34:07;;;;;;;14.15;10.05;;;;;;;22.28;43.16;94724.59;4986114;28;20559;-64
2021/11/03 02:36:34;;;;;;;12.38;9.20;;;;;;;22.27;43.17;94706.81;4986220;28;20029;-65
2021/11/03 02:39:02;;;;;;;12.73;9.38;;;;;;;22.26;43.20;94721.66;4986012;28;20038;-65
2021/11/03 02:41:29;;;;;;;13.13;9.82;;;;;;;22.25;43.07;94701.13;4985050;28;20165;-65
2021/11/03 02:44:02;;;;;;;13.50;9.63;;;;;;;22.26;43.13;94716.22;5000895;28;20035;-65
2021/11/03 02:46:28;;;;;;;12.73;9.55;;;;;;;22.25;43.03;94720.19;4985986;28;20030;-65
2021/11/03 02:48:53;;;;;;;13.88;9.88;;;;;;;22.25;43.09;94724.88;5001064;28;20468;-65
2021/11/03 02:51:21;;;;;;;13.80;9.65;;;;;;;22.25;43.23;94714.00;4986338;28;20034;-65
2021/11/03 02:53:47;;;;;;;13.68;9.55;;;;;;;22.24;43.35;94704.38;4985971;28;20490;-65
2021/11/03 02:56:14;;;;;;;12.68;9.23;;;;;;;22.23;43.21;94706.34;4985793;28;20070;-65
2021/11/03 02:58:40;;;;;;;12.82;9.15;;;;;;;22.24;43.25;94718.72;4985939;28;20034;-66
2021/11/03 03:01:14;;;;;;;12.20;8.98;;;;;;;22.24;43.26;94729.59;4985957;28;20108;-66
2021/11/03 03:03:44;;;;;;;12.57;8.75;;;;;;;22.23;43.43;94732.81;4998781;28;20046;-65
2021/11/03 03:06:10;;;;;;;13.05;9.27;;;;;;;22.22;43.32;94737.50;5004132;28;20510;-65
2021/11/03 03:08:35;;;;;;;12.07;8.88;;;;;;;22.22;43.08;94736.78;4987566;28;20064;-65
2021/11/03 03:11:04;;;;;;;12.68;9.05;;;;;;;22.21;43.22;94746.94;4987766;28;20422;-65
2021/11/03 03:13:29;;;;;;;12.90;9.52;;;;;;;22.22;43.27;94742.94;4987986;28;20022;-65
2021/11/03 03:15:55;;;;;;;13.27;8.88;;;;;;;22.21;43.37;94744.22;5004976;28;20030;-65
2021/11/03 03:18:20;;;;;;;13.23;9.65;;;;;;;22.19;43.06;94743.94;5005212;28;20018;-64
2021/11/03 03:20:46;;;;;;;12.45;9.00;;;;;;;22.18;43.24;94742.47;5005209;28;20029;-66
2021/11/03 03:23:11;;;;;;;12.57;9.00;;;;;;;22.18;43.30;94731.59;4987281;28;20022;-66
2021/11/03 03:25:38;;;;;;;12.40;9.13;;;;;;;22.18;43.38;94747.91;5004353;28;20026;-66
2021/11/03 03:28:04;;;;;;;12.20;9.02;;;;;;;22.15;43.29;94743.50;5004825;28;20018;-65
2021/11/03 03:30:29;;;;;;;12.90;9.50;;;;;;;22.17;43.32;94735.56;5005050;28;20021;-66
2021/11/03 03:32:54;;;;;;;13.30;9.80;;;;;;;22.19;43.35;94743.22;4987024;28;20041;-66
2021/11/03 03:35:20;;;;;;;12.30;9.07;;;;;;;22.16;43.30;94749.66;5005111;28;20026;-66
2021/11/03 03:37:47;;;;;;;11.45;8.65;;;;;;;22.15;43.39;94748.94;5004857;28;20033;-66
2021/11/03 03:40:12;;;;;;;12.15;9.23;;;;;;;22.15;43.36;94767.97;5004757;28;20034;-65
2021/11/03 03:42:38;;;;;;;12.57;8.98;;;;;;;22.15;43.32;94765.25;5004560;28;20083;-65
2021/11/03 03:45:04;;;;;;;12.27;9.27;;;;;;;22.15;43.32;94762.53;5004444;28;20037;-65
2021/11/03 03:47:29;;;;;;;12.70;9.05;;;;;;;22.14;43.36;94754.88;5004664;28;20018;-65
2021/11/03 03:49:55;;;;;;;11.20;9.10;;;;;;;22.13;43.21;94762.28;5004893;28;20107;-65
2021/11/03 03:52:21;;;;;;;12.68;9.00;;;;;;;22.12;43.21;94770.94;5005297;28;20551;-65
2021/11/03 03:54:46;;;;;;;13.43;9.52;;;;;;;22.11;43.29;94775.66;5004834;28;20419;-65
2021/11/03 03:57:12;;;;;;;11.55;8.88;;;;;;;22.10;43.32;94774.16;5004526;28;20502;-65
2021/11/03 03:59:37;;;;;;;10.52;8.20;;;;;;;22.10;43.33;94779.59;5004820;28;20034;-65
2021/11/03 04:02:03;;;;;;;11.55;8.63;;;;;;;22.11;43.34;94797.41;5004873;28;20468;-65
2021/11/03 04:04:28;;;;;;;11.73;9.05;;;;;;;22.09;43.35;94794.47;4996467;28;20160;-65
2021/11/03 04:06:54;;;;;;;11.98;8.50;;;;;;;22.08;43.39;94798.41;5004734;28;20124;-65
2021/11/03 04:09:19;;;;;;;12.80;9.25;;;;;;;22.10;43.35;94784.31;4987139;28;20029;-65
2021/11/03 04:11:44;;;;;;;13.43;8.88;;;;;;;22.09;43.24;94794.47;5004695;28;20029;-65
2021/11/03 04:14:10;;;;;;;11.93;8.88;;;;;;;22.09;43.31;94799.91;5004499;28;20030;-65
2021/11/03 04:16:35;;;;;;;12.02;8.57;;;;;;;22.08;43.34;94803.88;5004323;28;20017;-65
2021/11/03 04:19:01;;;;;;;11.30;7.97;;;;;;;22.08;43.07;94806.56;5004421;28;20022;-65
2021/11/03 04:21:26;;;;;;;13.02;8.70;;;;;;;22.08;43.49;94808.56;5004574;28;20510;-65
2021/11/03 04:23:53;;;;;;;12.40;8.77;;;;;;;22.06;43.47;94800.91;5004298;28;20609;-66
2021/11/03 04:26:29;;;;;;;11.23;8.25;;;;;;;22.06;43.44;94787.31;5004699;28;20064;-64
2021/11/03 04:28:54;;;;;;;12.93;8.90;;;;;;;22.05;43.31;94788.56;5005448;28;20037;-65
2021/11/03 04:31:20;;;;;;;12.55;8.98;;;;;;;22.04;43.62;94792.50;4990794;28;20072;-65
2021/11/03 04:33:45;;;;;;;12.02;8.77;;;;;;;22.05;43.39;94794.00;5007982;28;20411;-64
2021/11/03 04:36:11;;;;;;;10.73;8.55;;;;;;;22.04;43.53;94797.94;4990565;28;20116;-66
2021/11/03 04:38:36;;;;;;;12.35;8.45;;;;;;;22.05;43.27;94794.00;5007705;28;20502;-65
2021/11/03 04:41:02;;;;;;;12.13;8.75;;;;;;;22.03;43.41;94807.38;5007017;28;20052;-66
2021/11/03 04:43:27;;;;;;;11.98;9.18;;;;;;;22.03;43.31;94801.94;5007730;28;20124;-65
2021/11/03 04:45:53;;;;;;;11.32;8.20;;;;;;;22.02;43.41;94805.16;5007578;28;20482;-66
2021/11/03 04:48:18;;;;;;;11.60;8.52;;;;;;;22.01;43.33;94809.84;5007643;28;20034;-66
2021/11/03 04:50:44;;;;;;;11.95;8.80;;;;;;;22.03;43.38;94806.59;5007554;28;20503;-65
2021/11/03 04:53:09;;;;;;;11.32;8.48;;;;;;;22.01;43.39;94815.28;5007741;28;20026;-65
2021/11/03 04:55:35;;;;;;;11.35;8.07;;;;;;;22.01;43.51;94820.72;5007728;28;20053;-66
2021/11/03 04:58:01;;;;;;;11.65;8.65;;;;;;;22.00;43.32;94819.25;5007646;28;20017;-66
2021/11/03 05:00:28;;;;;;;12.07;8.63;;;;;;;22.01;43.50;94820.72;4990182;28;20489;-66
2021/11/03 05:02:54;;;;;;;11.50;8.23;;;;;;;21.99;43.65;94817.75;5007086;28;20521;-65
2021/11/03 05:05:20;;;;;;;10.55;8.07;;;;;;;21.99;43.57;94817.75;4988886;28;20034;-66
2021/11/03 05:07:47;;;;;;;9.95;7.82;;;;;;;22.00;43.52;94824.69;5007424;28;20029;-65
2021/11/03 05:10:12;;;;;;;12.15;8.52;;;;;;;21.99;43.41;94834.06;5007426;28;20057;-65
2021/11/03 05:12:38;;;;;;;10.95;8.15;;;;;;;21.98;43.49;94832.59;4989551;28;20097;-65
2021/11/03 05:15:03;;;;;;;10.60;8.15;;;;;;;21.98;43.50;94827.16;4989731;28;20103;-66
2021/11/03 05:17:29;;;;;;;10.75;8.15;;;;;;;22.00;43.30;94830.13;5007127;28;20454;-65
2021/11/03 05:19:54;;;;;;;10.50;7.85;;;;;;;21.98;43.31;94832.59;4989580;28;20056;-65
2021/11/03 05:22:24;;;;;;;11.52;8.57;;;;;;;21.99;43.47;94831.34;5007289;28;20025;-65
2021/11/03 05:24:50;;;;;;;10.35;8.13;;;;;;;21.97;43.51;94838.53;5006994;28;20041;-65
2021/11/03 05:27:15;;;;;;;10.35;7.95;;;;;;;21.99;43.28;94844.94;5006895;28;20108;-64
2021/11/03 05:29:41;;;;;;;10.88;8.27;;;;;;;21.97;43.38;94841.25;5007074;28;20034;-65
2021/11/03 05:32:06;;;;;;;11.38;8.00;;;;;;;21.96;43.42;94845.97;5007314;28;20033;-65
2021/11/03 05:34:32;;;;;;;10.50;7.85;;;;;;;21.97;43.44;94844.72;5006851;28;20024;-66
2021/11/03 05:36:57;;;;;;;11.48;8.45;;;;;;;21.98;43.56;94843.47;5007411;28;20539;-65
2021/11/03 05:39:23;;;;;;;12.20;8.40;;;;;;;21.97;43.38;94852.88;5007025;28;20518;-66
2021/11/03 05:41:48;;;;;;;11.20;8.35;;;;;;;21.96;43.36;94862.28;5006884;28;20033;-65
2021/11/03 05:44:15;;;;;;;10.32;7.72;;;;;;;21.96;43.76;94856.84;4988849;28;20091;-65
2021/11/03 05:46:52;;;;;;;11.73;8.35;;;;;;;21.96;43.48;94851.41;5011538;28;20091;-65
2021/11/03 05:49:19;;;;;;;10.68;8.07;;;;;;;21.96;43.54;94851.41;5006458;28;20152;-63
2021/11/03 05:51:45;;;;;;;9.90;7.45;;;;;;;22.01;43.49;94858.78;5013021;28;20048;-64
2021/11/03 05:54:11;;;;;;;13.10;7.88;;;;;;;22.03;43.74;94872.63;5026271;28;20033;-63
2021/11/03 05:56:37;;;;;;;10.50;8.30;;;;;;;22.06;43.90;94882.50;5026384;28;20033;-64
2021/11/03 05:59:03;;;;;;;10.82;7.03;;;;;;;22.15;43.64;94884.16;5026286;28;20037;-64
2021/11/03 06:01:29;;;;;;;9.30;7.43;;;;;;;22.21;43.80;94877.50;5026480;28;20030;-66
2021/11/03 06:03:54;;;;;;;10.25;7.72;;;;;;;22.26;43.57;94873.97;5025773;28;20515;-63
2021/11/03 06:06:21;;;;;;;9.52;6.97;;;;;;;22.34;43.46;94874.91;5007896;28;20040;-62
2021/11/03 06:08:48;;;;;;;9.70;7.57;;;;;;;22.42;43.40;94875.84;5024667;28;20156;-66
2021/11/03 06:11:15;;;;;;;11.73;7.30;;;;;;;22.52;43.30;94887.88;5008089;28;20029;-65
2021/11/03 06:13:42;;;;;;;11.70;8.20;;;;;;;22.61;43.02;94882.13;5024155;28;20055;-67
2021/11/03 06:16:07;;;;;;;10.07;7.63;;;;;;;22.72;43.01;94882.03;5025548;28;20131;-65
2021/11/03 06:18:33;;;;;;;9.55;7.63;;;;;;;22.86;42.53;94880.94;5008325;28;20013;-65
2021/11/03 06:20:58;;;;;;;10.50;7.28;;;;;;;22.94;42.75;94886.09;5025659;28;20029;-67
2021/11/03 06:23:24;;;;;;;11.07;8.60;;;;;;;23.04;42.60;94887.22;5025407;28;20025;-66
2021/11/03 06:25:49;;;;;;;9.85;7.45;;;;;;;23.15;42.75;94898.03;5008057;28;20025;-66
2021/11/03 06:28:15;;;;;;;11.10;7.13;;;;;;;23.30;43.09;94898.34;5025310;28;20014;-65
2021/11/03 06:30:40;;;;;;;9.98;7.30;;;;;;;23.33;43.26;94900.03;5008124;28;20617;-65
2021/11/03 06:33:06;;;;;;;10.45;7.20;;;;;;;23.46;43.97;94894.69;5025657;28;20029;-66
2021/11/03 06:35:33;;;;;;;10.63;7.63;;;;;;;23.62;43.67;94896.50;5025981;28;20033;-65
2021/11/03 06:38:01;;;;;;;8.75;6.80;;;;;;;23.77;43.00;94891.41;5025315;28;20107;-64
2021/11/03 06:40:27;;;;;;;8.90;6.82;;;;;;;23.84;43.09;94901.72;5008270;28;20087;-67
2021/11/03 06:42:53;;;;;;;9.52;7.43;;;;;;;23.86;42.95;94910.13;5025278;28;20577;-64
2021/11/03 06:45:18;;;;;;;8.18;6.75;;;;;;;23.97;42.34;94911.44;5025651;28;20453;-67
2021/11/03 06:47:45;;;;;;;9.30;6.97;;;;;;;24.01;42.00;94906.44;5025827;28;20521;-67
2021/11/03 06:50:13;;;;;;;9.30;7.30;;;;;;;24.05;41.45;94904.16;5025007;28;20094;-66
2021/11/03 06:52:39;;;;;;;9.20;7.03;;;;;;;24.17;41.28;94908.22;5024183;28;20036;-64
2021/11/03 06:55:05;;;;;;;9.05;6.85;;;;;;;24.25;40.99;94903.66;5026023;28;20116;-65
2021/11/03 06:57:31;;;;;;;8.80;7.30;;;;;;;24.33;41.00;94915.47;5025553;28;20822;-66
2021/11/03 06:59:57;;;;;;;9.48;6.90;;;;;;;24.38;40.90;94917.41;5025594;28;20491;-66
2021/11/03 07:02:23;;;;;;;9.48;7.03;;;;;;;24.41;40.64;94921.81;5025785;28;20079;-65
2021/11/03 07:04:48;;;;;;;9.13;6.97;;;;;;;24.47;40.64;94925.94;5025970;28;20523;-66
2021/11/03 07:07:14;;;;;;;8.70;6.60;;;;;;;24.56;39.97;94933.03;5024795;28;20041;-66
2021/11/03 07:09:40;;;;;;;9.13;7.35;;;;;;;24.57;40.11;94926.28;5025648;28;20032;-65
2021/11/03 07:12:05;;;;;;;8.95;6.82;;;;;;;24.68;39.86;94923.38;5007525;28;20083;-67
2021/11/03 07:14:31;;;;;;;8.73;6.70;;;;;;;24.72;39.74;94929.28;5024872;28;20589;-66
2021/11/03 07:16:56;;;;;;;8.35;6.97;;;;;;;24.78;39.80;94927.19;5024459;28;20025;-66
2021/11/03 07:19:22;;;;;;;9.50;7.10;;;;;;;24.88;39.67;94929.75;5007425;28;20526;-66
2021/11/03 07:21:47;;;;;;;8.80;7.13;;;;;;;24.91;39.80;94941.66;5025115;28;20044;-66
2021/11/03 07:24:13;;;;;;;10.43;7.65;;;;;;;25.00;39.13;94939.28;5024553;28;20033;-64
2021/11/03 07:26:42;;;;;;;10.50;7.70;;;;;;;25.09;39.30;94947.06;5025270;28;20041;-65
2021/11/03 07:29:08;;;;;;;8.30;6.72;;;;;;;25.15;39.21;94947.00;5024015;28;20179;-67
2021/11/03 07:31:33;;;;;;;8.85;6.85;;;;;;;25.18;38.84;94943.94;5006159;28;20041;-66
2021/11/03 07:33:59;;;;;;;10.25;7.47;;;;;;;25.15;39.02;94955.91;5024615;28;20044;-66
2021/11/03 07:36:24;;;;;;;7.93;6.55;;;;;;;25.10;39.24;94959.50;5022181;28;20052;-63
2021/11/03 07:38:50;;;;;;;10.38;7.15;;;;;;;25.11;39.06;94960.97;5022604;28;20850;-65
2021/11/03 07:41:16;;;;;;;9.35;6.88;;;;;;;25.16;38.97;94957.41;5022919;28;20029;-65
2021/11/03 07:43:43;;;;;;;8.00;6.63;;;;;;;25.06;38.94;94959.06;5022185;28;20100;-65
2021/11/03 07:46:09;;;;;;;9.63;7.20;;;;;;;25.15;38.85;94966.13;5024063;28;20140;-65
2021/11/03 07:48:34;;;;;;;9.02;7.30;;;;;;;25.06;39.02;94964.50;5023581;28;20541;-66
2021/11/03 07:51:05;;;;;;;10.30;7.43;;;;;;;25.03;39.27;94973.03;5006451;28;20028;-65
2021/11/03 07:53:30;;;;;;;8.65;7.20;;;;;;;24.99;39.08;94965.13;5020908;28;20032;-65
2021/11/03 07:55:58;;;;;;;9.80;7.07;;;;;;;24.88;39.09;94965.25;4974021;28;20026;-65
2021/11/03 07:58:24;;;;;;;9.43;7.13;;;;;;;24.85;39.42;94971.03;5005383;28;20022;-65
2021/11/03 08:00:50;;;;;;;9.38;7.13;;;;;;;24.76;39.30;94967.97;5005356;28;20536;-65
2021/11/03 08:03:16;;;;;;;8.80;7.32;;;;;;;24.69;39.27;94952.16;5005582;28;20160;-65
2021/11/03 08:05:41;;;;;;;8.77;6.93;;;;;;;24.66;39.95;94953.22;5009010;28;20030;-65
2021/11/03 08:08:11;;;;;;;8.38;6.88;;;;;;;24.64;39.90;94972.84;5008180;28;20040;-65
2021/11/03 08:10:37;;;;;;;9.32;7.13;;;;;;;24.57;39.47;94967.25;5009120;28;20037;-66
2021/11/03 08:13:04;;;;;;;8.38;6.80;;;;;;;24.58;40.07;94957.81;5007633;28;20049;-66
2021/11/03 08:15:29;;;;;;;9.32;7.15;;;;;;;24.54;39.95;94946.44;5008379;28;20397;-65
2021/11/03 08:17:55;;;;;;;9.40;6.93;;;;;;;24.48;39.67;94943.03;5008139;28;20083;-66
2021/11/03 08:20:24;;;;;;;9.93;7.05;;;;;;;24.43;39.80;94952.06;4994413;28;20053;-66
2021/11/03 08:22:50;;;;;;;8.87;6.87;;;;;;;24.41;40.04;94949.13;4975812;28;20083;-66
2021/11/03 08:25:16;;;;;;;9.57;7.20;;;;;;;24.37;40.25;94937.75;5039609;28;20287;-66
2021/11/03 08:27:41;;;;;;;8.65;6.60;;;;;;;24.34;40.41;94938.78;5029098;28;20021;-66
2021/11/03 08:30:08;;;;;;;9.27;7.22;;;;;;;24.27;40.24;94944.78;5029128;28;20029;-66
2021/11/03 08:32:37;;;;;;;9.38;7.07;;;;;;;24.26;40.12;94943.34;5046817;28;20537;-65
2021/11/03 08:35:05;;;;;;;9.48;7.40;;;;;;;24.18;40.77;94939.69;5012879;28;20032;-65
2021/11/03 08:37:32;;;;;;;8.82;7.38;;;;;;;24.25;40.27;94936.38;5029719;28;20032;-66
2021/11/03 08:39:58;;;;;;;10.38;6.78;;;;;;;24.19;40.68;94927.53;5013338;28;20045;-65
2021/11/03 08:42:23;;;;;;;9.43;6.60;;;;;;;24.18;40.28;94936.97;5046345;28;20562;-66
2021/11/03 08:44:50;;;;;;;10.32;7.28;;;;;;;24.19;40.56;94943.91;5047868;28;20101;-66
2021/11/03 08:47:16;;;;;;;10.60;7.30;;;;;;;24.17;40.75;94946.44;5047496;28;20032;-66
2021/11/03 08:49:41;;;;;;;10.70;7.45;;;;;;;24.13;40.48;94945.97;5029387;28;20033;-66
2021/11/03 08:52:07;;;;;;;9.02;7.03;;;;;;;24.09;40.84;94950.97;5047779;28;20055;-66
2021/11/03 08:54:38;;;;;;;9.60;7.40;;;;;;;24.09;40.53;94948.25;5047419;28;20634;-67
2021/11/03 08:57:04;;;;;;;9.20;7.05;;;;;;;24.08;40.59;94960.44;5028965;28;20029;-66
2021/11/03 08:59:29;;;;;;;9.00;7.40;;;;;;;24.04;40.87;94951.78;5046875;28;20486;-66
2021/11/03 09:01:55;;;;;;;10.10;7.30;;;;;;;24.01;40.94;94952.81;5029284;28;20094;-66
2021/11/03 09:04:20;;;;;;;8.55;7.20;;;;;;;24.00;40.56;94953.34;5010548;28;20121;-66
2021/11/03 09:06:46;;;;;;;10.00;7.28;;;;;;;23.98;41.11;94951.13;5024900;28;20407;-66
2021/11/03 09:09:11;;;;;;;9.57;7.03;;;;;;;24.01;40.48;94961.00;5026468;28;20511;-65
2021/11/03 09:11:37;;;;;;;10.38;7.65;;;;;;;23.96;40.90;94953.63;5027242;28;20029;-66
2021/11/03 09:14:02;;;;;;;9.25;7.30;;;;;;;23.94;40.67;94950.66;5026907;28;20033;-66
2021/11/03 09:16:28;;;;;;;9.40;7.50;;;;;;;23.92;40.69;94957.91;5026988;28;20036;-65
2021/11/03 09:18:54;;;;;;;8.68;7.40;;;;;;;23.91;40.81;94940.06;5023554;28;20060;-65
2021/11/03 09:21:21;;;;;;;11.85;8.43;;;;;;;23.92;40.94;94931.34;4991356;28;20037;-66
2021/11/03 09:23:47;;;;;;;9.48;7.03;;;;;;;23.88;40.86;94936.38;5007557;28;20821;-65
2021/11/03 09:26:14;;;;;;;9.52;7.20;;;;;;;23.89;41.19;94932.38;5007124;28;20034;-65
2021/11/03 09:28:40;;;;;;;9.73;7.10;;;;;;;23.87;41.05;94934.91;5008761;28;20026;-64
2021/11/03 09:31:08;;;;;;;9.75;7.75;;;;;;;23.86;40.75;94930.69;5026713;28;20677;-65
2021/11/03 09:33:34;;;;;;;10.55;7.78;;;;;;;23.86;41.22;94923.78;5025008;28;20349;-65
2021/11/03 09:36:00;;;;;;;9.20;7.15;;;;;;;23.88;41.16;94925.47;5026793;28;20029;-65
2021/11/03 09:38:27;;;;;;;11.35;7.88;;;;;;;23.87;40.67;94929.44;5025647;28;20041;-66
2021/11/03 09:40:54;;;;;;;9.65;7.55;;;;;;;23.85;41.00;94925.03;5013269;28;20057;-65
2021/11/03 09:43:40;;;;;;;10.18;7.60;;;;;;;23.85;40.75;94922.28;5005630;28;20026;-66
2021/11/03 09:46:28;;;;;;;11.45;7.90;;;;;;;23.86;40.96;94921.03;4989305;28;20030;-62
2021/11/03 09:48:58;;;;;;;12.18;8.52;;;;;;;23.87;41.05;94918.53;5006235;28;20025;-60
2021/11/03 09:51:25;;;;;;;10.05;7.80;;;;;;;23.89;41.13;94899.66;5005924;28;20029;-62
2021/11/03 09:53:56;;;;;;;10.50;8.10;;;;;;;23.94;41.06;94909.75;4989109;28;20860;-64
2021/11/03 09:56:39;;;;;;;9.85;7.45;;;;;;;23.93;40.96;94897.38;5006972;28;20026;-61
2021/11/03 09:59:30;;;;;;;10.88;8.05;;;;;;;23.92;41.45;94887.72;5025887;28;20091;-61
2021/11/03 10:02:35;;;;;;;12.00;8.82;;;;;;;23.99;41.46;94887.13;5024728;28;20029;-61
2021/11/03 10:05:15;;;;;;;13.05;9.40;;;;;;;24.07;41.88;94876.38;5027703;28;20021;-60
2021/11/03 10:07:57;;;;;;;12.68;8.90;;;;;;;24.13;41.59;94875.03;5045574;28;20162;-61
2021/11/03 10:10:24;;;;;;;11.95;8.55;;;;;;;24.21;41.82;94878.63;5029610;28;20862;-60
2021/11/03 10:12:50;;;;;;;10.15;8.05;;;;;;;24.30;41.39;94867.34;5046293;28;20589;-61
2021/11/03 10:15:17;;;;;;;11.30;8.55;;;;;;;24.43;41.21;94870.16;5045553;28;20115;-62
2021/11/03 10:17:43;;;;;;;12.35;8.45;;;;;;;24.53;40.91;94874.72;5045434;28;20497;-62
2021/11/03 10:20:19;;;;;;;11.80;8.68;;;;;;;24.69;41.11;94875.72;5027658;28;20021;-70
2021/11/03 10:22:44;;;;;;;11.32;8.45;;;;;;;24.83;40.71;94870.50;5045808;28;20044;-70
2021/11/03 10:25:17;;;;;;;13.02;8.68;;;;;;;24.92;40.40;94870.09;5044947;28;20025;-70
2021/11/03 10:27:51;;;;;;;11.73;9.27;;;;;;;24.98;40.42;94862.53;5044309;28;20025;-67
2021/11/03 10:30:27;;;;;;;11.07;8.10;;;;;;;25.13;39.99;94865.53;5011146;28;20028;-63
2021/11/03 10:32:52;;;;;;;12.27;8.73;;;;;;;25.20;39.95;94848.53;5045449;28;20035;-68
2021/11/03 10:35:27;;;;;;;12.15;8.65;;;;;;;25.33;39.52;94856.72;5027553;28;20032;-68
2021/11/03 10:38:15;;;;;;;12.77;8.77;;;;;;;25.45;39.30;94863.44;5044574;28;20039;-62
2021/11/03 10:40:43;;;;;;;12.15;7.85;;;;;;;25.53;39.35;94853.31;5027283;28;20017;-62
2021/11/03 10:43:24;;;;;;;11.52;7.93;;;;;;;25.58;38.92;94845.03;5045235;28;20046;-61
2021/11/03 10:45:59;;;;;;;11.52;8.43;;;;;;;25.72;38.74;94837.56;5027722;28;20024;-61
2021/11/03 10:48:27;;;;;;;12.00;8.45;;;;;;;25.76;38.76;94848.94;5044367;28;20028;-60
2021/11/03 10:50:55;;;;;;;11.13;8.65;;;;;;;25.82;38.83;94848.28;5025739;28;20516;-63
2021/11/03 10:53:22;;;;;;;11.68;7.97;;;;;;;25.99;38.60;94845.94;5045283;28;20060;-62
2021/11/03 10:56:10;;;;;;;12.68;9.00;;;;;;;26.09;38.25;94846.94;5044735;28;20470;-64
2021/11/03 10:58:51;;;;;;;12.85;8.75;;;;;;;26.05;38.25;94838.34;5026231;28;20048;-64
2021/11/03 11:01:22;;;;;;;12.13;8.30;;;;;;;26.09;37.93;94849.69;5044367;28;20098;-65
2021/11/03 11:04:16;;;;;;;11.98;8.73;;;;;;;26.13;38.30;94850.09;5044243;28;20057;-65
2021/11/03 11:06:47;;;;;;;11.65;8.82;;;;;;;26.16;38.34;94853.75;5045569;28;20028;-64
2021/11/03 11:09:49;;;;;;;12.77;9.10;;;;;;;26.19;37.76;94847.97;5055057;28;20028;-67
2021/11/03 11:12:21;;;;;;;13.23;8.85;;;;;;;26.27;37.95;94848.78;5057487;28;20025;-64
2021/11/03 11:14:46;;;;;;;10.77;8.07;;;;;;;26.30;37.81;94847.75;5055426;28;20427;-66
2021/11/03 11:17:19;;;;;;;12.07;8.35;;;;;;;26.34;37.54;94848.88;5044277;28;20082;-65
2021/11/03 11:20:07;;;;;;;10.65;8.40;;;;;;;26.49;37.59;94853.78;5010431;28;20518;-62
2021/11/03 11:23:12;;;;;;;13.48;9.00;;;;;;;26.60;37.30;94837.09;5043259;28;20039;-63
2021/11/03 11:25:43;;;;;;;10.32;8.40;;;;;;;26.64;37.11;94829.28;5041052;28;20287;-63
2021/11/03 11:28:28;;;;;;;11.90;8.93;;;;;;;26.64;37.20;94832.00;5043215;28;20108;-63
2021/11/03 11:31:12;;;;;;;11.55;8.63;;;;;;;26.69;37.07;94820.19;5044837;28;20120;-62